sensor_id;sensor_type;location;lat;lon;timestamp;pressure;altitude;pressure_sealevel;temperature;humidity
58739;BME280;44512;53.046;18.604;2023-03-19T00:04:44;101643.68;;;9.36;44.05
58739;BME280;44512;53.046;18.604;2023-03-19T00:15:11;101637.60;;;9.26;44.20
58739;BME280;44512;53.046;18.604;2023-03-19T00:25:40;101646.72;;;9.17;44.36
58739;BME280;44512;53.046;18.604;2023-03-19T00:36:09;101652.95;;;9.09;44.51
58739;BME280;44512;53.046;18.604;2023-03-19T00:46:37;101637.77;;;9.00;44.67
58739;BME280;44512;53.046;18.604;2023-03-19T00:57:06;101647.05;;;8.89;44.96
58739;BME280;44512;53.046;18.604;2023-03-19T01:07:34;101639.94;;;8.80;45.03
58739;BME280;44512;53.046;18.604;2023-03-19T01:18:02;101648.86;;;8.72;45.03
58739;BME280;44512;53.046;18.604;2023-03-19T01:28:31;101641.08;;;8.61;45.19
58739;BME280;44512;53.046;18.604;2023-03-19T01:38:59;101646.47;;;8.53;45.37
58739;BME280;44512;53.046;18.604;2023-03-19T01:49:28;101650.30;;;8.42;45.51
58739;BME280;44512;53.046;18.604;2023-03-19T01:59:59;101641.14;;;8.35;45.73
58739;BME280;44512;53.046;18.604;2023-03-19T02:10:24;101653.43;;;8.29;45.90
58739;BME280;44512;53.046;18.604;2023-03-19T02:31:22;101636.17;;;8.14;46.29
58739;BME280;44512;53.046;18.604;2023-03-19T02:52:18;101645.69;;;7.92;46.86
58739;BME280;44512;53.046;18.604;2023-03-19T03:02:46;101652.88;;;7.83;47.33
58739;BME280;44512;53.046;18.604;2023-03-19T03:13:15;101658.90;;;7.77;47.65
58739;BME280;44512;53.046;18.604;2023-03-19T03:23:43;101657.16;;;7.68;48.00
58739;BME280;44512;53.046;18.604;2023-03-19T03:34:12;101646.72;;;7.65;48.31
58739;BME280;44512;53.046;18.604;2023-03-19T03:44:40;101656.11;;;7.61;48.66
58739;BME280;44512;53.046;18.604;2023-03-19T03:55:09;101661.80;;;7.58;48.99
58739;BME280;44512;53.046;18.604;2023-03-19T04:05:37;101667.67;;;7.53;49.15
58739;BME280;44512;53.046;18.604;2023-03-19T04:16:07;101659.38;;;7.47;49.12
58739;BME280;44512;53.046;18.604;2023-03-19T04:26:34;101659.00;;;7.42;49.48
58739;BME280;44512;53.046;18.604;2023-03-19T04:37:03;101677.32;;;7.38;49.59
58739;BME280;44512;53.046;18.604;2023-03-19T04:47:31;101676.09;;;7.33;49.71
58739;BME280;44512;53.046;18.604;2023-03-19T04:58:00;101671.04;;;7.29;49.76
58739;BME280;44512;53.046;18.604;2023-03-19T05:08:28;101669.32;;;7.28;49.89
58739;BME280;44512;53.046;18.604;2023-03-19T05:18:57;101659.55;;;7.27;49.95
58739;BME280;44512;53.046;18.604;2023-03-19T05:29:25;101659.55;;;7.27;50.10
58739;BME280;44512;53.046;18.604;2023-03-19T05:39:54;101657.58;;;7.29;50.23
58739;BME280;44512;53.046;18.604;2023-03-19T05:50:22;101661.79;;;7.32;50.54
58739;BME280;44512;53.046;18.604;2023-03-19T06:00:54;101653.24;;;7.37;50.96
58739;BME280;44512;53.046;18.604;2023-03-19T06:11:19;101681.55;;;7.41;51.19
58739;BME280;44512;53.046;18.604;2023-03-19T06:21:48;101690.65;;;7.40;51.61
58739;BME280;44512;53.046;18.604;2023-03-19T06:32:16;101694.23;;;7.48;51.80
58739;BME280;44512;53.046;18.604;2023-03-19T06:42:46;101715.16;;;7.54;51.94
58739;BME280;44512;53.046;18.604;2023-03-19T06:53:14;101707.31;;;7.61;51.83
58739;BME280;44512;53.046;18.604;2023-03-19T07:03:42;101728.91;;;7.69;51.69
58739;BME280;44512;53.046;18.604;2023-03-19T07:14:10;101729.15;;;7.76;51.23
58739;BME280;44512;53.046;18.604;2023-03-19T07:24:39;101727.34;;;7.84;50.84
58739;BME280;44512;53.046;18.604;2023-03-19T07:35:08;101738.86;;;7.95;50.55
58739;BME280;44512;53.046;18.604;2023-03-19T07:45:36;101743.98;;;8.06;50.54
58739;BME280;44512;53.046;18.604;2023-03-19T07:56:05;101736.32;;;8.19;50.31
58739;BME280;44512;53.046;18.604;2023-03-19T08:06:32;101728.95;;;8.29;50.11
58739;BME280;44512;53.046;18.604;2023-03-19T08:17:01;101717.51;;;8.35;50.07
58739;BME280;44512;53.046;18.604;2023-03-19T08:27:29;101715.25;;;8.49;50.27
58739;BME280;44512;53.046;18.604;2023-03-19T08:37:58;101718.18;;;8.64;50.51
58739;BME280;44512;53.046;18.604;2023-03-19T08:48:27;101735.27;;;8.80;50.59
58739;BME280;44512;53.046;18.604;2023-03-19T08:58:55;101723.16;;;9.01;50.38
58739;BME280;44512;53.046;18.604;2023-03-19T09:09:23;101725.21;;;9.23;50.01
58739;BME280;44512;53.046;18.604;2023-03-19T09:19:52;101718.48;;;9.44;49.97
58739;BME280;44512;53.046;18.604;2023-03-19T09:35:20;101712.55;;;9.64;50.10
58739;BME280;44512;53.046;18.604;2023-03-19T09:45:48;101705.95;;;9.83;50.17
58739;BME280;44512;53.046;18.604;2023-03-19T09:56:16;101706.39;;;10.11;50.01
58739;BME280;44512;53.046;18.604;2023-03-19T10:06:45;101691.65;;;10.30;50.08
58739;BME280;44512;53.046;18.604;2023-03-19T10:17:21;101701.70;;;10.53;49.72
58739;BME280;44512;53.046;18.604;2023-03-19T10:27:44;101693.12;;;10.80;49.11
58739;BME280;44512;53.046;18.604;2023-03-19T10:38:20;101696.02;;;11.02;48.78
58739;BME280;44512;53.046;18.604;2023-03-19T10:48:43;101691.80;;;11.22;48.69
58739;BME280;44512;53.046;18.604;2023-03-19T11:09:37;101672.59;;;11.69;47.51
58739;BME280;44512;53.046;18.604;2023-03-19T11:30:39;101643.53;;;12.08;46.86
58739;BME280;44512;53.046;18.604;2023-03-19T11:51:36;101641.67;;;12.59;42.94
58739;BME280;44512;53.046;18.604;2023-03-19T12:12:37;101649.16;;;12.93;41.73
58739;BME280;44512;53.046;18.604;2023-03-19T12:23:02;101641.78;;;13.09;41.58
58739;BME280;44512;53.046;18.604;2023-03-19T12:33:32;101628.99;;;13.24;41.51
58739;BME280;44512;53.046;18.604;2023-03-19T12:54:29;101617.03;;;13.46;42.00
58739;BME280;44512;53.046;18.604;2023-03-19T13:05:37;101613.13;;;13.55;42.10
58739;BME280;44512;53.046;18.604;2023-03-19T13:25:46;101602.14;;;13.70;43.13
58739;BME280;44512;53.046;18.604;2023-03-19T13:36:13;101604.30;;;13.81;43.36
58739;BME280;44512;53.046;18.604;2023-03-19T13:46:41;101611.45;;;13.89;43.50
58739;BME280;44512;53.046;18.604;2023-03-19T13:57:16;101618.20;;;14.00;43.54
58739;BME280;44512;53.046;18.604;2023-03-19T14:07:40;101612.39;;;14.10;43.33
58739;BME280;44512;53.046;18.604;2023-03-19T14:18:12;101603.23;;;14.17;43.67
58739;BME280;44512;53.046;18.604;2023-03-19T15:00:03;101583.19;;;14.38;44.44
58739;BME280;44512;53.046;18.604;2023-03-19T15:10:41;101588.22;;;14.41;44.64
58739;BME280;44512;53.046;18.604;2023-03-19T15:20:57;101586.15;;;14.43;44.79
58739;BME280;44512;53.046;18.604;2023-03-19T15:41:55;101589.49;;;14.45;44.86
58739;BME280;44512;53.046;18.604;2023-03-19T15:52:23;101598.73;;;14.44;44.94
58739;BME280;44512;53.046;18.604;2023-03-19T16:02:51;101607.94;;;14.43;45.34
58739;BME280;44512;53.046;18.604;2023-03-19T16:13:29;101610.01;;;14.41;45.90
58739;BME280;44512;53.046;18.604;2023-03-19T16:23:55;101619.66;;;14.37;46.06
58739;BME280;44512;53.046;18.604;2023-03-19T16:44:46;101640.16;;;14.33;45.25
58739;BME280;44512;53.046;18.604;2023-03-19T16:55:21;101636.78;;;14.31;45.57
58739;BME280;44512;53.046;18.604;2023-03-19T17:05:43;101633.64;;;14.27;46.04
58739;BME280;44512;53.046;18.604;2023-03-19T17:16:15;101645.13;;;14.23;46.15
58739;BME280;44512;53.046;18.604;2023-03-19T17:26:38;101641.34;;;14.17;46.11
58739;BME280;44512;53.046;18.604;2023-03-19T17:37:11;101656.40;;;14.13;46.07
58739;BME280;44512;53.046;18.604;2023-03-19T17:47:35;101646.11;;;14.08;46.14
58739;BME280;44512;53.046;18.604;2023-03-19T17:58:04;101642.52;;;14.01;46.75
58739;BME280;44512;53.046;18.604;2023-03-19T18:08:32;101648.74;;;13.95;46.42
58739;BME280;44512;53.046;18.604;2023-03-19T18:19:03;101640.54;;;13.89;46.55
58739;BME280;44512;53.046;18.604;2023-03-19T18:29:29;101642.40;;;13.81;46.76
58739;BME280;44512;53.046;18.604;2023-03-19T18:39:57;101644.42;;;13.73;46.92
58739;BME280;44512;53.046;18.604;2023-03-19T18:50:28;101638.10;;;13.66;47.11
58739;BME280;44512;53.046;18.604;2023-03-19T19:00:54;101640.33;;;13.55;47.49
58739;BME280;44512;53.046;18.604;2023-03-19T19:11:23;101633.73;;;13.43;47.88
58739;BME280;44512;53.046;18.604;2023-03-19T19:21:52;101616.92;;;13.33;48.07
58739;BME280;44512;53.046;18.604;2023-03-19T19:32:25;101633.60;;;13.23;48.21
58739;BME280;44512;53.046;18.604;2023-03-19T19:42:50;101622.61;;;13.17;48.26
58739;BME280;44512;53.046;18.604;2023-03-19T19:53:17;101626.49;;;13.08;48.36
58739;BME280;44512;53.046;18.604;2023-03-19T20:03:46;101628.73;;;12.97;48.58
58739;BME280;44512;53.046;18.604;2023-03-19T20:14:14;101635.05;;;12.83;48.89
58739;BME280;44512;53.046;18.604;2023-03-19T20:24:42;101632.18;;;12.70;49.17
58739;BME280;44512;53.046;18.604;2023-03-19T20:35:17;101635.40;;;12.59;49.39
58739;BME280;44512;53.046;18.604;2023-03-19T20:45:39;101642.37;;;12.46;49.58
58739;BME280;44512;53.046;18.604;2023-03-19T20:56:15;101638.44;;;12.34;49.66
58739;BME280;44512;53.046;18.604;2023-03-19T21:06:36;101636.21;;;12.23;49.84
58739;BME280;44512;53.046;18.604;2023-03-19T21:17:05;101638.10;;;12.08;50.20
58739;BME280;44512;53.046;18.604;2023-03-19T21:27:35;101638.30;;;11.91;50.26
58739;BME280;44512;53.046;18.604;2023-03-19T21:38:02;101644.35;;;11.79;50.49
58739;BME280;44512;53.046;18.604;2023-03-19T21:48:32;101648.53;;;11.66;50.80
58739;BME280;44512;53.046;18.604;2023-03-19T21:59:02;101653.09;;;11.51;51.09
58739;BME280;44512;53.046;18.604;2023-03-19T22:09:27;101639.49;;;11.36;51.39
58739;BME280;44512;53.046;18.604;2023-03-19T22:19:56;101638.61;;;11.21;51.73
58739;BME280;44512;53.046;18.604;2023-03-19T22:40:54;101635.82;;;10.91;52.16
58739;BME280;44512;53.046;18.604;2023-03-19T22:51:24;101630.15;;;10.78;52.25
58739;BME280;44512;53.046;18.604;2023-03-19T23:01:50;101626.52;;;10.63;52.41
58739;BME280;44512;53.046;18.604;2023-03-19T23:12:19;101625.40;;;10.49;52.64
58739;BME280;44512;53.046;18.604;2023-03-19T23:22:47;101617.56;;;10.31;52.93
58739;BME280;44512;53.046;18.604;2023-03-19T23:33:17;101612.71;;;10.18;53.24
58739;BME280;44512;53.046;18.604;2023-03-19T23:43:44;101621.87;;;10.09;53.63
